createdAt,value
2019-02-20T00:02:12.632Z,99609.26
2019-02-20T00:04:48.487Z,99603.69
2019-02-20T00:07:24.340Z,99603.23
2019-02-20T00:10:00.373Z,99613.06
2019-02-20T00:12:36.199Z,99609.09
2019-02-20T00:15:12.212Z,99605.31
2019-02-20T00:17:48.171Z,99604.00
2019-02-20T00:20:24.031Z,99607.10
2019-02-20T00:23:00.387Z,99605.83
2019-02-20T00:25:36.129Z,99604.42
2019-02-20T00:28:11.993Z,99602.94
2019-02-20T00:30:47.848Z,99605.23
2019-02-20T00:33:24.020Z,99610.61
2019-02-20T00:35:59.852Z,99611.84
2019-02-20T00:38:35.705Z,99611.89
2019-02-20T00:41:11.571Z,99613.46
2019-02-20T00:43:49.064Z,99623.72
2019-02-20T00:46:26.452Z,99622.01
2019-02-20T00:49:03.934Z,99621.25
2019-02-20T00:51:41.331Z,99630.47
2019-02-20T00:54:17.178Z,99624.17
2019-02-20T00:56:52.935Z,99620.00
2019-02-20T00:59:28.795Z,99621.08
2019-02-20T01:02:04.644Z,99628.22
2019-02-20T01:04:40.502Z,99620.64
2019-02-20T01:07:16.363Z,99620.42
2019-02-20T01:09:52.211Z,99616.21
2019-02-20T01:12:28.055Z,99616.42
2019-02-20T01:15:05.547Z,99613.27
2019-02-20T01:17:42.434Z,99613.60
2019-02-20T01:20:18.277Z,99617.56
2019-02-20T01:22:59.779Z,99622.19
2019-02-20T01:25:31.624Z,99620.04
2019-02-20T01:28:07.492Z,99620.33
2019-02-20T01:30:43.334Z,99613.13
2019-02-20T01:33:19.186Z,99618.61
2019-02-20T01:35:55.043Z,99618.38
2019-02-20T01:38:30.905Z,99625.36
2019-02-20T01:41:06.759Z,99621.66
2019-02-20T01:43:42.703Z,99622.66
2019-02-20T01:46:19.610Z,99626.11
2019-02-20T01:48:55.443Z,99621.59
2019-02-20T01:51:31.297Z,99625.31
2019-02-20T01:54:07.031Z,99628.16
2019-02-20T01:56:42.914Z,99625.00
2019-02-20T01:59:18.765Z,99627.45
2019-02-20T02:01:54.611Z,99624.34
2019-02-20T02:04:30.764Z,99621.37
2019-02-20T02:07:06.631Z,99620.76
2019-02-20T02:09:42.479Z,99620.19
2019-02-20T02:12:18.249Z,99616.36
2019-02-20T02:14:54.088Z,99620.13
2019-02-20T02:17:29.786Z,99619.66
2019-02-20T02:20:08.692Z,99623.15
2019-02-20T02:22:44.522Z,99622.77
2019-02-20T02:25:20.363Z,99616.70
2019-02-20T02:27:56.248Z,99617.50
2019-02-20T02:30:32.124Z,99622.79
2019-02-20T02:33:07.911Z,99629.26
2019-02-20T02:35:43.802Z,99630.81
2019-02-20T02:38:19.645Z,99633.88
2019-02-20T02:40:55.493Z,99637.84
2019-02-20T02:43:31.336Z,99640.21
2019-02-20T02:46:07.202Z,99638.69
2019-02-20T02:48:43.159Z,99639.95
2019-02-20T02:51:19.025Z,99638.55
2019-02-20T02:53:54.878Z,99642.60
2019-02-20T02:56:30.724Z,99645.34
2019-02-20T02:59:06.570Z,99642.97
2019-02-20T03:01:42.430Z,99650.90
2019-02-20T03:04:18.277Z,99654.14
2019-02-20T03:06:54.126Z,99646.68
2019-02-20T03:09:29.997Z,99652.20
2019-02-20T03:12:05.953Z,99652.20
2019-02-20T03:14:41.689Z,99656.82
2019-02-20T03:17:17.749Z,99660.73
2019-02-20T03:19:53.496Z,99657.23
2019-02-20T03:22:29.367Z,99663.52
2019-02-20T03:25:05.923Z,99660.31
2019-02-20T03:27:41.791Z,99664.23
2019-02-20T03:30:17.651Z,99669.52
2019-02-20T03:32:53.604Z,99671.78
2019-02-20T03:35:29.451Z,99663.70
2019-02-20T03:38:05.305Z,99662.85
2019-02-20T03:40:41.050Z,99672.10
2019-02-20T03:43:16.915Z,99664.42
2019-02-20T03:45:52.653Z,99664.10
2019-02-20T03:48:28.819Z,99669.72
2019-02-20T03:51:04.685Z,99674.44
2019-02-20T03:53:50.907Z,99673.64
2019-02-20T03:56:18.223Z,99674.97
2019-02-20T03:58:54.089Z,99673.50
2019-02-20T04:01:29.841Z,99672.32
2019-02-20T04:04:05.688Z,99667.50
2019-02-20T04:06:41.433Z,99665.71
2019-02-20T04:09:17.288Z,99669.55
2019-02-20T04:11:53.151Z,99670.40
2019-02-20T04:14:29.201Z,99669.13
2019-02-20T04:17:04.954Z,99658.83
2019-02-20T04:19:40.802Z,99661.89
2019-02-20T04:22:16.575Z,99659.02
2019-02-20T04:24:52.411Z,99668.68
2019-02-20T04:27:28.271Z,99668.35
2019-02-20T04:30:06.416Z,99677.20
2019-02-20T04:32:42.237Z,99677.94
2019-02-20T04:35:18.081Z,99682.61
2019-02-20T04:37:53.933Z,99680.82
2019-02-20T04:40:29.796Z,99687.10
2019-02-20T04:43:05.651Z,99687.19
2019-02-20T04:45:41.532Z,99686.86
2019-02-20T04:48:17.461Z,99686.13
2019-02-20T04:50:53.213Z,99685.68
2019-02-20T04:53:29.053Z,99680.13
2019-02-20T04:56:04.915Z,99685.93
2019-02-20T04:58:40.767Z,99692.68
2019-02-20T05:01:16.633Z,99693.06
2019-02-20T05:03:52.474Z,99693.67
2019-02-20T05:06:28.340Z,99690.56
2019-02-20T05:09:04.903Z,99688.25
2019-02-20T05:11:42.335Z,99690.23
2019-02-20T05:14:18.154Z,99694.99
2019-02-20T05:16:53.996Z,99692.88
2019-02-20T05:19:29.753Z,99690.75
2019-02-20T05:22:05.618Z,99690.38
2019-02-20T05:24:41.359Z,99698.11
2019-02-20T05:27:17.148Z,99703.06
2019-02-20T05:29:52.952Z,99703.39
2019-02-20T05:32:28.925Z,99703.45
2019-02-20T05:35:05.078Z,99706.89
2019-02-20T05:37:40.942Z,99716.00
2019-02-20T05:40:16.681Z,99701.94
2019-02-20T05:42:52.658Z,99702.45
2019-02-20T05:45:28.385Z,99706.14
2019-02-20T05:48:04.446Z,99707.70
2019-02-20T05:50:40.204Z,99707.32
2019-02-20T05:53:16.054Z,99710.92
2019-02-20T05:55:51.908Z,99715.10
2019-02-20T05:58:27.767Z,99722.23
2019-02-20T06:01:03.635Z,99726.84
2019-02-20T06:03:39.430Z,99730.54
2019-02-20T06:06:15.228Z,99731.47
2019-02-20T06:08:51.079Z,99737.09
2019-02-20T06:11:26.850Z,99745.81
2019-02-20T06:14:02.681Z,99748.38
2019-02-20T06:16:38.543Z,99755.45
2019-02-20T06:19:14.283Z,99756.25
2019-02-20T06:21:50.134Z,99753.09
2019-02-20T06:24:25.996Z,99759.18
2019-02-20T06:27:02.887Z,99770.60
2019-02-20T06:29:38.621Z,99765.89
2019-02-20T06:32:14.444Z,99773.66
2019-02-20T06:34:50.234Z,99777.06
2019-02-20T06:37:26.082Z,99781.17
2019-02-20T06:40:01.952Z,99781.69
2019-02-20T06:42:38.130Z,99791.00
2019-02-20T06:45:13.946Z,99793.13
2019-02-20T06:47:49.701Z,99795.58
2019-02-20T06:50:25.563Z,99802.11
2019-02-20T06:53:01.420Z,99802.11
2019-02-20T06:55:37.278Z,99802.25
2019-02-20T06:58:13.119Z,99804.50
2019-02-20T07:00:48.871Z,99803.18
2019-02-20T07:03:24.725Z,99811.34
2019-02-20T07:06:20.251Z,99814.33
2019-02-20T07:09:18.720Z,99807.58
2019-02-20T07:11:57.550Z,99808.05
2019-02-20T07:15:09.764Z,99807.53
2019-02-20T07:17:51.362Z,99809.66
2019-02-20T07:20:34.261Z,99820.52
2019-02-20T07:23:27.663Z,99819.39
2019-02-20T07:26:37.018Z,99821.29
2019-02-20T07:29:49.285Z,99821.38
2019-02-20T07:32:25.139Z,99825.16
2019-02-20T07:35:00.988Z,99827.19
2019-02-20T07:37:37.048Z,99830.12
2019-02-20T07:40:13.102Z,99834.55
2019-02-20T07:42:48.956Z,99836.20
2019-02-20T07:45:25.016Z,99835.32
2019-02-20T07:48:01.168Z,99840.50
2019-02-20T07:50:37.031Z,99845.00
2019-02-20T07:53:12.880Z,99846.84
2019-02-20T07:55:49.754Z,99849.20
2019-02-20T07:58:25.505Z,99851.09
2019-02-20T08:01:01.365Z,99853.59
2019-02-20T08:03:37.420Z,99858.36
2019-02-20T08:06:13.277Z,99861.45
2019-02-20T08:08:49.139Z,99859.08
2019-02-20T08:11:24.996Z,99861.67
2019-02-20T08:14:00.850Z,99869.47
2019-02-20T08:16:37.002Z,99873.30
2019-02-20T08:19:12.863Z,99868.80
2019-02-20T08:21:48.715Z,99868.14
2019-02-20T08:24:49.887Z,99873.63
2019-02-20T08:27:41.888Z,99878.06
2019-02-20T08:30:17.957Z,99880.90
2019-02-20T08:32:53.812Z,99876.93
2019-02-20T08:35:29.655Z,99882.73
2019-02-20T08:38:05.406Z,99882.87
2019-02-20T08:40:41.265Z,99885.59
2019-02-20T08:43:17.213Z,99886.48
2019-02-20T08:45:53.086Z,99885.08
2019-02-20T08:48:30.064Z,99887.05
2019-02-20T08:51:05.917Z,99894.97
2019-02-20T08:53:42.067Z,99894.44
2019-02-20T08:56:17.925Z,99901.02
2019-02-20T08:58:53.875Z,99902.02
2019-02-20T09:01:29.624Z,99909.84
2019-02-20T09:04:05.502Z,99904.18
2019-02-20T09:06:41.341Z,99906.30
2019-02-20T09:09:17.184Z,99913.67
2019-02-20T09:11:53.040Z,99910.03
2019-02-20T09:14:29.015Z,99914.73
2019-02-20T09:17:04.859Z,99911.45
2019-02-20T09:19:40.712Z,99915.97
2019-02-20T09:22:16.513Z,99917.03
2019-02-20T09:24:52.324Z,99924.45
2019-02-20T09:27:28.085Z,99931.30
2019-02-20T09:30:05.045Z,99926.21
2019-02-20T09:32:41.122Z,99935.91
2019-02-20T09:35:16.952Z,99933.30
2019-02-20T09:37:52.812Z,99930.39
2019-02-20T09:40:28.871Z,99927.11
2019-02-20T09:43:04.734Z,99930.65
2019-02-20T09:45:42.884Z,99930.63
2019-02-20T09:48:18.274Z,99927.50
2019-02-20T09:50:54.372Z,99923.36
2019-02-20T09:53:30.183Z,99928.76
2019-02-20T09:56:06.051Z,99928.85
2019-02-20T09:58:41.893Z,99932.83
2019-02-20T10:01:17.646Z,99933.41
2019-02-20T10:03:53.511Z,99932.36
2019-02-20T10:06:29.251Z,99927.30
2019-02-20T10:09:06.148Z,99932.72
2019-02-20T10:11:42.406Z,99944.11
2019-02-20T10:14:18.262Z,99927.86
2019-02-20T10:16:54.150Z,99934.43
2019-02-20T10:19:30.162Z,99932.02
2019-02-20T10:22:05.868Z,99929.97
2019-02-20T10:24:41.665Z,99931.47
2019-02-20T10:27:17.420Z,99924.59
2019-02-20T10:29:53.280Z,99929.36
2019-02-20T10:32:29.149Z,99936.00
2019-02-20T10:35:06.904Z,99947.55
2019-02-20T10:37:42.688Z,99939.58
2019-02-20T10:40:18.541Z,99923.09
2019-02-20T10:42:54.501Z,99927.62
2019-02-20T10:45:30.344Z,99932.15
2019-02-20T10:48:06.193Z,99924.72
2019-02-20T10:50:42.043Z,99926.45
2019-02-20T10:53:17.906Z,99921.08
2019-02-20T10:55:53.967Z,99929.80
2019-02-20T10:58:29.824Z,99927.00
2019-02-20T11:01:05.928Z,99913.85
2019-02-20T11:03:41.836Z,99915.83
2019-02-20T11:06:17.693Z,99923.84
2019-02-20T11:08:53.545Z,99917.56
2019-02-20T11:11:29.414Z,99914.81
2019-02-20T11:14:05.260Z,99918.00
2019-02-20T11:16:41.104Z,99912.34
2019-02-20T11:19:16.844Z,99911.97
2019-02-20T11:21:52.707Z,99916.92
2019-02-20T11:24:28.459Z,99916.92
2019-02-20T11:27:04.411Z,99930.07
2019-02-20T11:29:40.161Z,99923.16
2019-02-20T11:32:16.024Z,99921.75
2019-02-20T11:34:51.870Z,99924.23
2019-02-20T11:37:27.721Z,99919.47
2019-02-20T11:40:03.591Z,99922.44
2019-02-20T11:42:39.436Z,99914.99
2019-02-20T11:45:16.446Z,99921.52
2019-02-20T11:47:52.271Z,99928.12
2019-02-20T11:50:28.026Z,99932.22
2019-02-20T11:53:03.878Z,99924.14
2019-02-20T11:55:39.734Z,99918.32
2019-02-20T11:58:15.607Z,99922.01
2019-02-20T12:00:51.432Z,99940.51
2019-02-20T12:03:27.289Z,99930.84
2019-02-20T12:06:03.642Z,99934.26
2019-02-20T12:08:39.868Z,99927.48
2019-02-20T12:11:15.671Z,99936.73
2019-02-20T12:13:52.645Z,99941.36
2019-02-20T12:16:28.506Z,99941.42
2019-02-20T12:19:05.485Z,99950.34
2019-02-20T12:21:41.345Z,99945.55
2019-02-20T12:24:17.200Z,99946.98
2019-02-20T12:26:53.052Z,99951.88
2019-02-20T12:29:30.068Z,99948.92
2019-02-20T12:32:06.198Z,99946.75
2019-02-20T12:34:42.046Z,99939.54
2019-02-20T12:37:17.891Z,99940.53
2019-02-20T12:39:53.750Z,99943.59
2019-02-20T12:42:29.613Z,99949.69
2019-02-20T12:45:07.828Z,99948.19
2019-02-20T12:47:43.669Z,99956.71
2019-02-20T12:50:19.531Z,99952.80
2019-02-20T12:52:55.373Z,99958.72
2019-02-20T12:55:31.141Z,99967.95
2019-02-20T12:58:07.295Z,99964.83
2019-02-20T13:00:43.738Z,99959.30
2019-02-20T13:03:19.614Z,99963.28
2019-02-20T13:05:55.472Z,99972.91
2019-02-20T13:08:31.516Z,99963.28
2019-02-20T13:11:07.276Z,99955.41
2019-02-20T13:13:43.567Z,99966.03
2019-02-20T13:16:19.498Z,99970.47
2019-02-20T13:18:55.192Z,99977.11
2019-02-20T13:21:31.008Z,99978.51
2019-02-20T13:24:07.977Z,99977.99
2019-02-20T13:26:52.530Z,99985.48
2019-02-20T13:29:21.322Z,99984.41
2019-02-20T13:31:57.191Z,99990.25
2019-02-20T13:34:33.034Z,99974.00
2019-02-20T13:37:08.784Z,99971.98
2019-02-20T13:39:44.646Z,99987.44
2019-02-20T13:42:20.499Z,100004.30
2019-02-20T13:44:56.349Z,99990.88
2019-02-20T13:47:32.502Z,100002.03
2019-02-20T13:50:11.678Z,99995.48
2019-02-20T13:52:52.275Z,99995.02
2019-02-20T13:55:34.034Z,99990.41
2019-02-20T13:58:03.082Z,99999.95
2019-02-20T14:00:38.842Z,100003.94
2019-02-20T14:03:14.894Z,99991.57
2019-02-20T14:05:50.851Z,99992.20
2019-02-20T14:08:26.614Z,99992.84
2019-02-20T14:11:02.456Z,99992.67
2019-02-20T14:13:38.309Z,99994.85
2019-02-20T14:16:14.894Z,99995.64
2019-02-20T14:18:51.967Z,99993.53
2019-02-20T14:21:27.818Z,100015.25
2019-02-20T14:24:03.680Z,100004.88
2019-02-20T14:26:39.603Z,100005.66
2019-02-20T14:29:15.387Z,100009.55
2019-02-20T14:31:51.253Z,100011.27
2019-02-20T14:34:27.087Z,100011.64
2019-02-20T14:37:03.010Z,100006.12
2019-02-20T14:39:38.904Z,100004.95
2019-02-20T14:42:14.763Z,100017.19
2019-02-20T14:44:50.621Z,100012.83
2019-02-20T14:47:26.480Z,100012.67
2019-02-20T14:50:02.334Z,100006.88
2019-02-20T14:52:38.987Z,100004.70
2019-02-20T14:55:15.995Z,100007.61
2019-02-20T14:57:52.042Z,100008.36
2019-02-20T15:00:28.308Z,100015.64
2019-02-20T15:03:04.142Z,100023.23
2019-02-20T15:05:40.013Z,100019.53
2019-02-20T15:08:15.854Z,100020.55
2019-02-20T15:10:51.709Z,100022.41
2019-02-20T15:13:27.973Z,100019.34
2019-02-20T15:16:03.833Z,100022.85
2019-02-20T15:18:39.840Z,100022.70
2019-02-20T15:21:15.638Z,100028.79
2019-02-20T15:23:51.901Z,100025.66
2019-02-20T15:26:27.752Z,100025.72
2019-02-20T15:29:03.604Z,100021.05
2019-02-20T15:31:39.460Z,100019.98
2019-02-20T15:34:15.332Z,100021.25
2019-02-20T15:36:51.174Z,100025.03
2019-02-20T15:39:27.036Z,100019.41
2019-02-20T15:42:02.877Z,100025.66
2019-02-20T15:44:39.354Z,100021.15
2019-02-20T15:47:15.150Z,100023.80
2019-02-20T15:49:51.014Z,100031.35
2019-02-20T15:52:26.756Z,100036.33
2019-02-20T15:55:02.712Z,100037.08
2019-02-20T15:57:38.553Z,100035.28
2019-02-20T16:00:19.381Z,100039.96
2019-02-20T16:02:55.489Z,100039.58
2019-02-20T16:05:31.291Z,100036.61
2019-02-20T16:08:07.399Z,100027.15
2019-02-20T16:10:43.230Z,100032.66
2019-02-20T16:13:19.039Z,100030.34
2019-02-20T16:15:54.861Z,100032.61
2019-02-20T16:18:30.630Z,100038.45
2019-02-20T16:21:06.759Z,100030.31
2019-02-20T16:23:42.586Z,100032.85
2019-02-20T16:26:19.314Z,100035.44
2019-02-20T16:28:55.075Z,100039.86
2019-02-20T16:31:30.822Z,100042.06
2019-02-20T16:34:06.584Z,100045.44
2019-02-20T16:36:42.355Z,100052.78
2019-02-20T16:39:18.152Z,100055.72
2019-02-20T16:41:53.896Z,100063.68
2019-02-20T16:44:29.913Z,100072.15
2019-02-20T16:47:05.706Z,100065.05
2019-02-20T16:49:41.470Z,100069.50
2019-02-20T16:52:17.246Z,100074.52
2019-02-20T16:54:54.949Z,100070.55
2019-02-20T16:57:30.831Z,100073.47
2019-02-20T17:00:09.934Z,100081.80
2019-02-20T17:02:46.230Z,100087.23
2019-02-20T17:05:22.266Z,100089.84
2019-02-20T17:07:58.348Z,100092.81
2019-02-20T17:10:34.106Z,100095.05
2019-02-20T17:13:11.182Z,100098.59
2019-02-20T17:15:47.170Z,100084.73
2019-02-20T17:18:22.954Z,100098.45
2019-02-20T17:20:58.714Z,100095.72
2019-02-20T17:23:34.573Z,100091.36
2019-02-20T17:26:10.629Z,100098.50
2019-02-20T17:28:46.392Z,100094.86
2019-02-20T17:31:22.211Z,100094.14
2019-02-20T17:33:57.946Z,100099.44
2019-02-20T17:36:33.727Z,100099.16
2019-02-20T17:39:09.635Z,100094.94
2019-02-20T17:41:45.937Z,100097.77
2019-02-20T17:44:22.025Z,100102.72
2019-02-20T17:46:57.843Z,100104.80
2019-02-20T17:49:33.628Z,100103.87
2019-02-20T17:52:09.578Z,100107.55
2019-02-20T17:54:45.766Z,100108.37
2019-02-20T17:57:21.537Z,100105.23
2019-02-20T17:59:57.471Z,100107.14
2019-02-20T18:02:33.338Z,100111.80
2019-02-20T18:05:09.500Z,100116.88
2019-02-20T18:07:49.655Z,100115.34
2019-02-20T18:10:22.838Z,100107.19
2019-02-20T18:12:58.644Z,100114.70
2019-02-20T18:15:34.393Z,100117.81
2019-02-20T18:18:10.149Z,100121.31
2019-02-20T18:20:45.950Z,100122.08
2019-02-20T18:23:22.082Z,100117.18
2019-02-20T18:25:57.864Z,100130.58
2019-02-20T18:28:33.629Z,100129.00
2019-02-20T18:31:09.451Z,100127.04
2019-02-20T18:33:45.312Z,100128.31
2019-02-20T18:36:21.184Z,100131.69
2019-02-20T18:38:57.038Z,100131.69
2019-02-20T18:41:32.978Z,100137.74
2019-02-20T18:44:09.168Z,100137.41
2019-02-20T18:46:45.004Z,100140.86
2019-02-20T18:49:21.288Z,100133.82
2019-02-20T18:51:57.257Z,100131.64
2019-02-20T18:54:33.001Z,100134.29
2019-02-20T18:57:08.846Z,100134.47
2019-02-20T18:59:44.551Z,100135.10
2019-02-20T19:02:20.369Z,100143.85
2019-02-20T19:04:57.129Z,100138.86
2019-02-20T19:07:33.030Z,100142.09
2019-02-20T19:10:20.965Z,100141.41
2019-02-20T19:13:15.477Z,100140.25
2019-02-20T19:16:09.235Z,100144.78
2019-02-20T19:19:06.396Z,100143.62
2019-02-20T19:22:03.013Z,100146.34
2019-02-20T19:25:04.737Z,100147.45
2019-02-20T19:27:49.318Z,100143.69
2019-02-20T19:30:53.527Z,100152.33
2019-02-20T19:33:35.374Z,100156.72
2019-02-20T19:36:46.882Z,100159.14
2019-02-20T19:39:37.233Z,100157.81
2019-02-20T19:42:26.103Z,100164.27
2019-02-20T19:45:23.093Z,100165.16
2019-02-20T19:48:23.625Z,100171.42
2019-02-20T19:51:05.728Z,100178.92
2019-02-20T19:53:59.818Z,100179.78
2019-02-20T19:56:53.333Z,100185.72
2019-02-20T19:59:50.074Z,100184.33
2019-02-20T20:02:34.908Z,100187.66
2019-02-20T20:05:16.351Z,100190.54
2019-02-20T20:07:55.172Z,100184.23
2019-02-20T20:10:45.874Z,100185.90
2019-02-20T20:13:36.732Z,100186.63
2019-02-20T20:16:34.038Z,100189.75
2019-02-20T20:19:31.392Z,100191.77
2019-02-20T20:22:28.326Z,100195.22
2019-02-20T20:25:07.399Z,100191.67
2019-02-20T20:27:58.089Z,100193.73
2019-02-20T20:30:40.805Z,100188.66
2019-02-20T20:33:34.391Z,100190.33
2019-02-20T20:36:36.942Z,100187.64
2019-02-20T20:39:36.344Z,100192.77
2019-02-20T20:42:17.481Z,100191.70
2019-02-20T20:44:56.355Z,100195.97
2019-02-20T20:48:11.259Z,100198.02
2019-02-20T20:51:01.505Z,100194.86
2019-02-20T20:54:03.288Z,100191.66
2019-02-20T20:56:57.632Z,100192.17
2019-02-20T20:59:40.272Z,100190.34
2019-02-20T21:02:19.517Z,100192.17
2019-02-20T21:04:58.330Z,100193.15
2019-02-20T21:07:53.638Z,100194.47
2019-02-20T21:10:51.095Z,100191.95
2019-02-20T21:13:49.898Z,100196.59
2019-02-20T21:16:28.815Z,100193.69
2019-02-20T21:19:30.476Z,100195.52
2019-02-20T21:22:20.668Z,100197.19
2019-02-20T21:25:19.064Z,100194.93
2019-02-20T21:27:57.977Z,100193.83
2019-02-20T21:31:08.049Z,100192.21
2019-02-20T21:34:15.115Z,100191.66
2019-02-20T21:37:05.878Z,100191.88
2019-02-20T21:39:47.510Z,100193.03
2019-02-20T21:42:36.412Z,100194.17
2019-02-20T21:45:26.972Z,100199.13
2019-02-20T21:48:05.800Z,100194.17
2019-02-20T21:50:47.488Z,100195.42
2019-02-20T21:53:35.223Z,100201.99
2019-02-20T21:56:17.248Z,100197.43
2019-02-20T21:59:17.024Z,100203.31
2019-02-20T22:02:08.038Z,100200.45
2019-02-20T22:04:49.835Z,100199.47
2019-02-20T22:07:31.397Z,100200.75
2019-02-20T22:10:29.913Z,100198.10
2019-02-20T22:13:31.566Z,100200.28
2019-02-20T22:16:25.506Z,100202.93
2019-02-20T22:19:09.800Z,100201.19
2019-02-20T22:22:08.588Z,100200.80
2019-02-20T22:25:18.136Z,100205.63
2019-02-20T22:28:16.516Z,100206.09
2019-02-20T22:31:11.916Z,100208.44
2019-02-20T22:34:02.755Z,100207.66
2019-02-20T22:36:41.673Z,100213.97
2019-02-20T22:39:29.503Z,100209.03
2019-02-20T22:42:20.511Z,100210.30
2019-02-20T22:45:08.230Z,100211.89
2019-02-20T22:48:03.533Z,100209.08
2019-02-20T22:51:06.558Z,100208.95
2019-02-20T22:53:58.056Z,100214.08
2019-02-20T22:56:45.584Z,100214.03
2019-02-20T22:59:36.694Z,100214.42
2019-02-20T23:02:18.374Z,100218.17
2019-02-20T23:05:20.046Z,100218.52
2019-02-20T23:08:01.527Z,100223.22
2019-02-20T23:10:56.739Z,100221.38
2019-02-20T23:13:41.393Z,100219.54
2019-02-20T23:16:17.458Z,100223.05
2019-02-20T23:18:53.233Z,100226.08
2019-02-20T23:21:29.071Z,100226.84
2019-02-20T23:24:05.024Z,100225.56
2019-02-20T23:26:40.867Z,100225.05
2019-02-20T23:29:16.832Z,100232.52
2019-02-20T23:31:52.674Z,100229.53
2019-02-20T23:34:28.539Z,100237.30
2019-02-20T23:37:04.481Z,100233.38
2019-02-20T23:39:40.348Z,100240.00
2019-02-20T23:42:16.190Z,100242.98
2019-02-20T23:44:52.045Z,100241.33
2019-02-20T23:47:27.919Z,100235.98
2019-02-20T23:50:03.766Z,100239.48
2019-02-20T23:52:39.618Z,100236.03
2019-02-20T23:55:15.467Z,100235.17
2019-02-20T23:57:51.215Z,100231.84
